Overview Statistics Trail Chart Weather Telemetry Raw packets
 

This is the latest recevied weather packets stored in our database for station/object OK2JV-13. If no packets are shown the sender has not sent any weather packets the latest 10 day(s).

<< 2 3 4 5 6 7 8 >>
Time Temp. Humidity Pressure Rain* Wind** Luminosity Snow
1788616793 19.44° C 42% 1016.6 hPa - - - -
1788616188 20° C 41% 1016.7 hPa - - - -
1788615584 20.56° C 40% 1016.9 hPa - - - -
1788614979 20.56° C 41% 1016.6 hPa - - - -
1788614375 20° C 43% 1016.5 hPa - - - -
1788613771 20° C 42% 1016.4 hPa - - - -
1788613167 20.56° C 43% 1016.5 hPa - - - -
1788612563 20° C 44% 1016.4 hPa - - - -
1788611959 19.44° C 45% 1016.4 hPa - - - -
1788611356 19.44° C 44% 1016.7 hPa - - - -
1788610752 20° C 45% 1016.4 hPa - - - -
1788610148 20° C 46% 1016.5 hPa - - - -
1788609543 20° C 47% 1016.5 hPa - - - -
1788608939 18.89° C 51% 1016.3 hPa - - - -
1788608335 18.33° C 51% 1016.4 hPa - - - -
1788607731 18.33° C 51% 1016.6 hPa - - - -
1788607129 18.89° C 50% 1016.4 hPa - - - -
1788606523 18.33° C 52% 1016.3 hPa - - - -
1788605918 18.33° C 55% 1016.3 hPa - - - -
1788605316 17.78° C 57% 1016.2 hPa - - - -
1788604711 17.78° C 58% 1016.1 hPa - - - -
1788604107 17.22° C 63% 1016.3 hPa - - - -
1788603502 17.22° C 63% 1016.4 hPa - - - -
1788602901 16.67° C 66% 1016.3 hPa - - - -
1788602295 16.67° C 68% 1016.3 hPa - - - -

* Rain since midnight (hover to see other rain measurements)
** Current wind speed in m/s (hover to see current wind gust speed)